sensor_id;sensor_type;location;lat;lon;timestamp;pressure;altitude;pressure_sealevel;temperature;humidity
9774;BME280;4926;42.670;23.316;2023-04-27T00:01:34;94227.88;;;8.79;60.67
9774;BME280;4926;42.670;23.316;2023-04-27T00:04:01;94229.44;;;8.80;59.81
9774;BME280;4926;42.670;23.316;2023-04-27T00:06:32;94233.47;;;8.77;60.03
9774;BME280;4926;42.670;23.316;2023-04-27T00:08:59;94232.16;;;8.75;60.47
9774;BME280;4926;42.670;23.316;2023-04-27T00:11:29;94230.00;;;8.77;60.07
9774;BME280;4926;42.670;23.316;2023-04-27T00:13:56;94237.28;;;8.66;59.87
9774;BME280;4926;42.670;23.316;2023-04-27T00:16:25;94226.97;;;8.65;60.34
9774;BME280;4926;42.670;23.316;2023-04-27T00:18:57;94237.97;;;8.77;60.45
9774;BME280;4926;42.670;23.316;2023-04-27T00:21:26;94241.72;;;8.76;60.09
9774;BME280;4926;42.670;23.316;2023-04-27T00:23:54;94242.31;;;8.68;60.17
9774;BME280;4926;42.670;23.316;2023-04-27T00:26:21;94238.59;;;8.69;60.14
9774;BME280;4926;42.670;23.316;2023-04-27T00:28:48;94239.94;;;8.66;59.72
9774;BME280;4926;42.670;23.316;2023-04-27T00:31:14;94237.56;;;8.65;59.71
9774;BME280;4926;42.670;23.316;2023-04-27T00:33:41;94234.19;;;8.59;60.03
9774;BME280;4926;42.670;23.316;2023-04-27T00:36:08;94231.06;;;8.52;60.28
9774;BME280;4926;42.670;23.316;2023-04-27T00:38:35;94237.13;;;8.58;60.18
9774;BME280;4926;42.670;23.316;2023-04-27T00:41:06;94219.31;;;8.35;60.27
9774;BME280;4926;42.670;23.316;2023-04-27T00:43:40;94240.47;;;8.40;60.72
9774;BME280;4926;42.670;23.316;2023-04-27T00:46:08;94238.41;;;8.37;60.88
9774;BME280;4926;42.670;23.316;2023-04-27T00:48:37;94244.22;;;8.39;60.59
9774;BME280;4926;42.670;23.316;2023-04-27T00:51:04;94236.84;;;8.36;60.60
9774;BME280;4926;42.670;23.316;2023-04-27T00:53:32;94243.28;;;8.25;60.95
9774;BME280;4926;42.670;23.316;2023-04-27T00:55:59;94240.88;;;8.23;61.09
9774;BME280;4926;42.670;23.316;2023-04-27T00:58:28;94241.97;;;8.27;61.02
9774;BME280;4926;42.670;23.316;2023-04-27T01:00:57;94239.38;;;8.12;61.18
9774;BME280;4926;42.670;23.316;2023-04-27T01:03:25;94249.75;;;8.09;61.28
9774;BME280;4926;42.670;23.316;2023-04-27T01:05:52;94254.81;;;8.05;61.61
9774;BME280;4926;42.670;23.316;2023-04-27T01:08:23;94248.28;;;7.98;61.69
9774;BME280;4926;42.670;23.316;2023-04-27T01:10:50;94259.94;;;7.97;61.83
9774;BME280;4926;42.670;23.316;2023-04-27T01:13:24;94246.69;;;7.97;61.83
9774;BME280;4926;42.670;23.316;2023-04-27T01:15:52;94263.63;;;8.01;61.87
9774;BME280;4926;42.670;23.316;2023-04-27T01:18:19;94258.31;;;8.01;61.64
9774;BME280;4926;42.670;23.316;2023-04-27T01:20:46;94269.97;;;8.05;61.79
9774;BME280;4926;42.670;23.316;2023-04-27T01:23:17;94270.03;;;7.94;62.19
9774;BME280;4926;42.670;23.316;2023-04-27T01:25:43;94261.63;;;7.82;62.30
9774;BME280;4926;42.670;23.316;2023-04-27T01:28:10;94272.16;;;7.92;62.18
9774;BME280;4926;42.670;23.316;2023-04-27T01:30:37;94265.75;;;7.99;61.74
9774;BME280;4926;42.670;23.316;2023-04-27T01:33:04;94276.41;;;7.93;62.16
9774;BME280;4926;42.670;23.316;2023-04-27T01:35:33;94272.16;;;7.92;61.83
9774;BME280;4926;42.670;23.316;2023-04-27T01:37:59;94273.19;;;7.97;62.02
9774;BME280;4926;42.670;23.316;2023-04-27T01:40:28;94279.00;;;7.99;61.69
9774;BME280;4926;42.670;23.316;2023-04-27T01:43:00;94276.34;;;7.99;61.83
9774;BME280;4926;42.670;23.316;2023-04-27T01:45:30;94280.09;;;7.98;61.67
9774;BME280;4926;42.670;23.316;2023-04-27T01:47:56;94277.72;;;7.91;61.56
9774;BME280;4926;42.670;23.316;2023-04-27T01:50:28;94272.94;;;7.93;61.67
9774;BME280;4926;42.670;23.316;2023-04-27T01:52:55;94267.97;;;7.86;61.50
9774;BME280;4926;42.670;23.316;2023-04-27T01:55:21;94274.88;;;7.82;61.61
9774;BME280;4926;42.670;23.316;2023-04-27T01:57:49;94278.63;;;7.81;61.47
9774;BME280;4926;42.670;23.316;2023-04-27T02:00:24;94270.41;;;7.78;61.59
9774;BME280;4926;42.670;23.316;2023-04-27T02:02:50;94275.41;;;7.84;61.45
9774;BME280;4926;42.670;23.316;2023-04-27T02:05:18;94271.66;;;7.85;61.52
9774;BME280;4926;42.670;23.316;2023-04-27T02:07:48;94283.63;;;7.83;61.45
9774;BME280;4926;42.670;23.316;2023-04-27T02:10:18;94278.00;;;7.89;61.51
9774;BME280;4926;42.670;23.316;2023-04-27T02:12:46;94278.00;;;7.89;60.91
9774;BME280;4926;42.670;23.316;2023-04-27T02:15:14;94272.28;;;7.77;61.34
9774;BME280;4926;42.670;23.316;2023-04-27T02:17:44;94276.97;;;7.85;61.48
9774;BME280;4926;42.670;23.316;2023-04-27T02:20:13;94283.34;;;7.84;60.90
9774;BME280;4926;42.670;23.316;2023-04-27T02:22:40;94283.34;;;7.84;60.95
9774;BME280;4926;42.670;23.316;2023-04-27T02:25:08;94283.91;;;7.81;61.10
9774;BME280;4926;42.670;23.316;2023-04-27T02:27:36;94282.34;;;7.75;60.80
9774;BME280;4926;42.670;23.316;2023-04-27T02:30:04;94276.53;;;7.73;61.11
9774;BME280;4926;42.670;23.316;2023-04-27T02:32:32;94281.03;;;7.78;60.92
9774;BME280;4926;42.670;23.316;2023-04-27T02:34:59;94278.66;;;7.76;60.83
9774;BME280;4926;42.670;23.316;2023-04-27T02:37:26;94277.06;;;7.75;60.75
9774;BME280;4926;42.670;23.316;2023-04-27T02:39:52;94287.97;;;7.69;60.87
9774;BME280;4926;42.670;23.316;2023-04-27T02:42:19;94279.19;;;7.73;60.62
9774;BME280;4926;42.670;23.316;2023-04-27T02:44:48;94281.34;;;7.71;60.70
9774;BME280;4926;42.670;23.316;2023-04-27T02:47:14;94289.78;;;7.73;60.48
9774;BME280;4926;42.670;23.316;2023-04-27T02:49:44;94283.94;;;7.76;60.60
9774;BME280;4926;42.670;23.316;2023-04-27T02:52:14;94286.09;;;7.74;60.50
9774;BME280;4926;42.670;23.316;2023-04-27T02:54:41;94285.81;;;7.76;60.43
9774;BME280;4926;42.670;23.316;2023-04-27T02:57:16;94284.72;;;7.77;60.23
9774;BME280;4926;42.670;23.316;2023-04-27T02:59:45;94283.44;;;7.74;59.70
9774;BME280;4926;42.670;23.316;2023-04-27T03:02:12;94283.41;;;7.79;59.87
9774;BME280;4926;42.670;23.316;2023-04-27T03:04:51;94299.84;;;7.76;60.15
9774;BME280;4926;42.670;23.316;2023-04-27T03:07:18;94295.06;;;7.73;60.03
9774;BME280;4926;42.670;23.316;2023-04-27T03:09:45;94292.38;;;7.78;60.00
9774;BME280;4926;42.670;23.316;2023-04-27T03:12:12;94299.78;;;7.86;59.93
9774;BME280;4926;42.670;23.316;2023-04-27T03:14:41;94296.63;;;7.79;59.70
9774;BME280;4926;42.670;23.316;2023-04-27T03:17:08;94300.91;;;7.75;60.03
9774;BME280;4926;42.670;23.316;2023-04-27T03:19:35;94309.94;;;7.74;60.18
9774;BME280;4926;42.670;23.316;2023-04-27T03:22:03;94292.72;;;7.72;59.59
9774;BME280;4926;42.670;23.316;2023-04-27T03:24:29;94297.84;;;7.58;59.61
9774;BME280;4926;42.670;23.316;2023-04-27T03:26:57;94304.19;;;7.62;59.89
9774;BME280;4926;42.670;23.316;2023-04-27T03:29:29;94312.88;;;7.68;59.63
9774;BME280;4926;42.670;23.316;2023-04-27T03:31:56;94315.00;;;7.66;59.23
9774;BME280;4926;42.670;23.316;2023-04-27T03:34:23;94315.28;;;7.64;59.84
9774;BME280;4926;42.670;23.316;2023-04-27T03:36:53;94318.03;;;7.44;59.86
9774;BME280;4926;42.670;23.316;2023-04-27T03:39:21;94319.34;;;7.42;60.00
9774;BME280;4926;42.670;23.316;2023-04-27T03:41:48;94328.72;;;7.29;60.50
9774;BME280;4926;42.670;23.316;2023-04-27T03:44:16;94325.56;;;7.12;61.42
9774;BME280;4926;42.670;23.316;2023-04-27T03:46:43;94336.66;;;7.19;61.38
9774;BME280;4926;42.670;23.316;2023-04-27T03:49:12;94334.00;;;7.24;61.63
9774;BME280;4926;42.670;23.316;2023-04-27T03:51:39;94336.09;;;7.32;61.42
9774;BME280;4926;42.670;23.316;2023-04-27T03:54:06;94324.47;;;7.28;60.99
9774;BME280;4926;42.670;23.316;2023-04-27T03:56:41;94336.91;;;7.33;60.84
9774;BME280;4926;42.670;23.316;2023-04-27T03:59:09;94337.09;;;7.46;60.71
9774;BME280;4926;42.670;23.316;2023-04-27T04:01:35;94344.47;;;7.54;60.61
9774;BME280;4926;42.670;23.316;2023-04-27T04:04:04;94323.84;;;7.46;60.45
9774;BME280;4926;42.670;23.316;2023-04-27T04:06:33;94347.63;;;7.56;60.09
9774;BME280;4926;42.670;23.316;2023-04-27T04:09:00;94346.34;;;7.49;62.74
9774;BME280;4926;42.670;23.316;2023-04-27T04:11:39;94376.91;;;7.85;68.03
9774;BME280;4926;42.670;23.316;2023-04-27T04:14:05;94343.81;;;7.77;60.87
9774;BME280;4926;42.670;23.316;2023-04-27T04:16:33;94355.03;;;7.64;59.81
9774;BME280;4926;42.670;23.316;2023-04-27T04:18:59;94364.63;;;7.50;60.25
9774;BME280;4926;42.670;23.316;2023-04-27T04:21:26;94363.53;;;7.56;60.31
9774;BME280;4926;42.670;23.316;2023-04-27T04:23:54;94376.28;;;7.44;60.26
9774;BME280;4926;42.670;23.316;2023-04-27T04:26:21;94370.41;;;7.52;60.36
9774;BME280;4926;42.670;23.316;2023-04-27T04:28:49;94368.78;;;7.61;60.64
9774;BME280;4926;42.670;23.316;2023-04-27T04:31:17;94372.78;;;7.59;59.62
9774;BME280;4926;42.670;23.316;2023-04-27T04:33:45;94370.91;;;7.64;59.82
9774;BME280;4926;42.670;23.316;2023-04-27T04:36:12;94378.25;;;7.77;59.51
9774;BME280;4926;42.670;23.316;2023-04-27T04:38:39;94386.13;;;7.87;59.33
9774;BME280;4926;42.670;23.316;2023-04-27T04:41:07;94379.78;;;7.88;58.96
9774;BME280;4926;42.670;23.316;2023-04-27T04:43:34;94382.13;;;7.95;58.74
9774;BME280;4926;42.670;23.316;2023-04-27T04:46:05;94378.81;;;7.74;58.92
9774;BME280;4926;42.670;23.316;2023-04-27T04:48:32;94389.69;;;7.73;59.31
9774;BME280;4926;42.670;23.316;2023-04-27T04:50:59;94397.34;;;7.74;59.75
9774;BME280;4926;42.670;23.316;2023-04-27T04:53:26;94396.25;;;7.80;59.41
9774;BME280;4926;42.670;23.316;2023-04-27T04:55:55;94389.03;;;7.91;59.20
9774;BME280;4926;42.670;23.316;2023-04-27T04:58:22;94395.59;;;8.04;58.88
9774;BME280;4926;42.670;23.316;2023-04-27T05:00:51;94392.72;;;7.95;59.05
9774;BME280;4926;42.670;23.316;2023-04-27T05:03:20;94401.38;;;8.11;58.59
9774;BME280;4926;42.670;23.316;2023-04-27T05:05:49;94394.53;;;8.00;58.58
9774;BME280;4926;42.670;23.316;2023-04-27T05:08:15;94409.28;;;8.16;58.52
9774;BME280;4926;42.670;23.316;2023-04-27T05:10:48;94412.47;;;8.18;58.66
9774;BME280;4926;42.670;23.316;2023-04-27T05:13:15;94406.59;;;8.21;58.46
9774;BME280;4926;42.670;23.316;2023-04-27T05:15:41;94411.84;;;8.36;58.35
9774;BME280;4926;42.670;23.316;2023-04-27T05:18:11;94409.97;;;8.36;58.07
9774;BME280;4926;42.670;23.316;2023-04-27T05:20:41;94410.00;;;8.31;57.54
9774;BME280;4926;42.670;23.316;2023-04-27T05:23:08;94410.06;;;8.21;57.62
9774;BME280;4926;42.670;23.316;2023-04-27T05:25:35;94410.88;;;8.22;57.99
9774;BME280;4926;42.670;23.316;2023-04-27T05:28:06;94413.56;;;8.17;58.07
9774;BME280;4926;42.670;23.316;2023-04-27T05:30:32;94424.78;;;7.99;59.34
9774;BME280;4926;42.670;23.316;2023-04-27T05:33:03;94418.91;;;8.02;60.01
9774;BME280;4926;42.670;23.316;2023-04-27T05:35:32;94417.84;;;8.08;59.60
9774;BME280;4926;42.670;23.316;2023-04-27T05:38:01;94424.44;;;8.10;58.91
9774;BME280;4926;42.670;23.316;2023-04-27T05:40:28;94428.97;;;8.10;58.84
9774;BME280;4926;42.670;23.316;2023-04-27T05:42:57;94431.06;;;8.13;58.52
9774;BME280;4926;42.670;23.316;2023-04-27T05:45:31;94433.16;;;8.16;59.07
9774;BME280;4926;42.670;23.316;2023-04-27T05:47:58;94431.47;;;8.35;58.69
9774;BME280;4926;42.670;23.316;2023-04-27T05:50:27;94434.69;;;8.32;58.15
9774;BME280;4926;42.670;23.316;2023-04-27T05:52:57;94428.91;;;8.20;58.40
9774;BME280;4926;42.670;23.316;2023-04-27T05:55:31;94440.03;;;8.27;58.67
9774;BME280;4926;42.670;23.316;2023-04-27T05:58:07;94441.31;;;8.29;59.20
9774;BME280;4926;42.670;23.316;2023-04-27T06:00:38;94420.22;;;8.09;58.97
9774;BME280;4926;42.670;23.316;2023-04-27T06:03:07;94431.50;;;8.30;59.21
9774;BME280;4926;42.670;23.316;2023-04-27T06:05:34;94437.78;;;8.44;58.80
9774;BME280;4926;42.670;23.316;2023-04-27T06:08:01;94430.91;;;8.43;58.42
9774;BME280;4926;42.670;23.316;2023-04-27T06:10:29;94437.22;;;8.52;58.37
9774;BME280;4926;42.670;23.316;2023-04-27T06:12:56;94431.91;;;8.47;58.25
9774;BME280;4926;42.670;23.316;2023-04-27T06:15:22;94436.66;;;8.55;58.29
9774;BME280;4926;42.670;23.316;2023-04-27T06:17:49;94430.22;;;8.66;58.72
9774;BME280;4926;42.670;23.316;2023-04-27T06:20:16;94428.53;;;8.75;58.04
9774;BME280;4926;42.670;23.316;2023-04-27T06:22:42;94430.03;;;8.86;57.92
9774;BME280;4926;42.670;23.316;2023-04-27T06:25:11;94429.94;;;8.96;57.46
9774;BME280;4926;42.670;23.316;2023-04-27T06:27:39;94423.00;;;9.00;57.01
9774;BME280;4926;42.670;23.316;2023-04-27T06:30:07;94419.19;;;9.11;56.91
9774;BME280;4926;42.670;23.316;2023-04-27T06:32:34;94412.78;;;9.12;57.03
9774;BME280;4926;42.670;23.316;2023-04-27T06:35:00;94420.16;;;9.20;56.55
9774;BME280;4926;42.670;23.316;2023-04-27T06:37:27;94414.16;;;9.10;56.20
9774;BME280;4926;42.670;23.316;2023-04-27T06:39:54;94425.38;;;9.30;56.46
9774;BME280;4926;42.670;23.316;2023-04-27T06:42:23;94413.00;;;9.44;56.07
9774;BME280;4926;42.670;23.316;2023-04-27T06:44:53;94408.53;;;9.63;55.46
9774;BME280;4926;42.670;23.316;2023-04-27T06:47:21;94403.66;;;9.70;54.36
9774;BME280;4926;42.670;23.316;2023-04-27T06:49:50;94397.00;;;9.91;54.17
9774;BME280;4926;42.670;23.316;2023-04-27T06:52:17;94399.84;;;10.19;54.06
9774;BME280;4926;42.670;23.316;2023-04-27T06:54:44;94394.31;;;10.34;53.39
9774;BME280;4926;42.670;23.316;2023-04-27T06:57:15;94391.03;;;10.74;52.82
9774;BME280;4926;42.670;23.316;2023-04-27T06:59:42;94383.38;;;10.86;51.62
9774;BME280;4926;42.670;23.316;2023-04-27T07:02:10;94381.84;;;10.80;51.64
9774;BME280;4926;42.670;23.316;2023-04-27T07:04:37;94381.53;;;10.68;51.58
9774;BME280;4926;42.670;23.316;2023-04-27T07:07:03;94382.84;;;10.52;52.22
9774;BME280;4926;42.670;23.316;2023-04-27T07:09:30;94382.50;;;10.58;51.99
9774;BME280;4926;42.670;23.316;2023-04-27T07:12:00;94384.22;;;10.49;52.55
9774;BME280;4926;42.670;23.316;2023-04-27T07:14:29;94385.00;;;10.50;51.70
9774;BME280;4926;42.670;23.316;2023-04-27T07:16:58;94387.59;;;10.36;51.77
9774;BME280;4926;42.670;23.316;2023-04-27T07:19:31;94384.66;;;10.38;51.84
9774;BME280;4926;42.670;23.316;2023-04-27T07:22:00;94377.53;;;10.52;51.63
9774;BME280;4926;42.670;23.316;2023-04-27T07:24:27;94374.44;;;10.63;51.16
9774;BME280;4926;42.670;23.316;2023-04-27T07:26:53;94378.56;;;10.69;51.72
9774;BME280;4926;42.670;23.316;2023-04-27T07:29:22;94373.47;;;10.86;51.39
9774;BME280;4926;42.670;23.316;2023-04-27T07:31:48;94369.69;;;11.06;51.14
9774;BME280;4926;42.670;23.316;2023-04-27T07:34:17;94375.34;;;11.45;50.63
9774;BME280;4926;42.670;23.316;2023-04-27T07:36:45;94357.19;;;11.61;48.80
9774;BME280;4926;42.670;23.316;2023-04-27T07:39:14;94347.72;;;11.68;48.76
9774;BME280;4926;42.670;23.316;2023-04-27T07:41:41;94338.78;;;12.00;47.31
9774;BME280;4926;42.670;23.316;2023-04-27T07:44:11;94331.97;;;12.52;46.76
9774;BME280;4926;42.670;23.316;2023-04-27T07:46:40;94327.75;;;12.81;45.75
9774;BME280;4926;42.670;23.316;2023-04-27T07:49:10;94329.63;;;12.81;45.48
9774;BME280;4926;42.670;23.316;2023-04-27T07:51:38;94320.75;;;12.94;46.05
9774;BME280;4926;42.670;23.316;2023-04-27T07:54:06;94320.75;;;12.94;45.87
9774;BME280;4926;42.670;23.316;2023-04-27T07:56:35;94318.50;;;13.09;45.32
9774;BME280;4926;42.670;23.316;2023-04-27T07:59:03;94316.84;;;13.22;44.95
9774;BME280;4926;42.670;23.316;2023-04-27T08:01:32;94313.41;;;13.30;44.83
9774;BME280;4926;42.670;23.316;2023-04-27T08:03:58;94313.06;;;12.92;44.98
9774;BME280;4926;42.670;23.316;2023-04-27T08:06:25;94311.88;;;13.07;45.20
9774;BME280;4926;42.670;23.316;2023-04-27T08:08:53;94313.16;;;12.79;46.72
9774;BME280;4926;42.670;23.316;2023-04-27T08:11:26;94332.22;;;12.86;46.42
9774;BME280;4926;42.670;23.316;2023-04-27T08:13:53;94322.72;;;13.02;46.24
9774;BME280;4926;42.670;23.316;2023-04-27T08:16:19;94325.31;;;13.63;45.21
9774;BME280;4926;42.670;23.316;2023-04-27T08:18:46;94307.94;;;14.17;43.65
9774;BME280;4926;42.670;23.316;2023-04-27T08:21:13;94296.88;;;14.70;42.45
9774;BME280;4926;42.670;23.316;2023-04-27T08:23:41;94300.81;;;14.72;42.75
9774;BME280;4926;42.670;23.316;2023-04-27T08:26:13;94304.00;;;14.06;43.97
9774;BME280;4926;42.670;23.316;2023-04-27T08:28:42;94310.94;;;13.42;44.21
9774;BME280;4926;42.670;23.316;2023-04-27T08:31:09;94307.81;;;13.09;45.08
9774;BME280;4926;42.670;23.316;2023-04-27T08:33:35;94310.25;;;13.28;44.41
9774;BME280;4926;42.670;23.316;2023-04-27T08:36:04;94311.22;;;13.32;44.60
9774;BME280;4926;42.670;23.316;2023-04-27T08:38:32;94304.06;;;13.58;44.07
9774;BME280;4926;42.670;23.316;2023-04-27T08:40:59;94306.88;;;13.53;44.40
9774;BME280;4926;42.670;23.316;2023-04-27T08:43:30;94310.25;;;13.28;44.90
9774;BME280;4926;42.670;23.316;2023-04-27T08:46:01;94314.38;;;13.34;45.08
9774;BME280;4926;42.670;23.316;2023-04-27T08:48:28;94308.66;;;13.66;44.29
9774;BME280;4926;42.670;23.316;2023-04-27T08:50:56;94311.94;;;13.63;43.81
9774;BME280;4926;42.670;23.316;2023-04-27T08:53:28;94308.75;;;13.53;43.84
9774;BME280;4926;42.670;23.316;2023-04-27T08:55:57;94303.72;;;13.51;44.12
9774;BME280;4926;42.670;23.316;2023-04-27T08:58:34;94318.00;;;14.03;44.42
9774;BME280;4926;42.670;23.316;2023-04-27T09:01:05;94311.56;;;14.55;42.63
9774;BME280;4926;42.670;23.316;2023-04-27T09:03:35;94303.81;;;14.71;42.65
9774;BME280;4926;42.670;23.316;2023-04-27T09:06:04;94297.19;;;14.77;41.90
9774;BME280;4926;42.670;23.316;2023-04-27T09:08:42;94293.50;;;14.98;41.95
9774;BME280;4926;42.670;23.316;2023-04-27T09:11:08;94288.97;;;14.90;41.46
9774;BME280;4926;42.670;23.316;2023-04-27T09:13:41;94285.84;;;14.80;41.31
9774;BME280;4926;42.670;23.316;2023-04-27T09:16:11;94286.72;;;14.92;41.18
9774;BME280;4926;42.670;23.316;2023-04-27T09:18:41;94275.56;;;15.28;40.98
9774;BME280;4926;42.670;23.316;2023-04-27T09:21:08;94279.00;;;15.37;40.85
9774;BME280;4926;42.670;23.316;2023-04-27T09:23:36;94255.00;;;15.49;40.45
9774;BME280;4926;42.670;23.316;2023-04-27T09:26:05;94261.66;;;15.72;40.29
9774;BME280;4926;42.670;23.316;2023-04-27T09:28:34;94260.94;;;16.04;39.84
9774;BME280;4926;42.670;23.316;2023-04-27T09:31:01;94229.25;;;16.84;38.88
9774;BME280;4926;42.670;23.316;2023-04-27T09:33:31;94228.19;;;17.21;37.49
9774;BME280;4926;42.670;23.316;2023-04-27T09:36:00;94235.34;;;17.05;37.12
9774;BME280;4926;42.670;23.316;2023-04-27T09:38:28;94225.06;;;16.41;38.16
9774;BME280;4926;42.670;23.316;2023-04-27T09:40:55;94233.69;;;16.14;38.61
9774;BME280;4926;42.670;23.316;2023-04-27T09:43:22;94228.84;;;16.28;38.41
9774;BME280;4926;42.670;23.316;2023-04-27T09:45:52;94224.78;;;16.22;38.05
9774;BME280;4926;42.670;23.316;2023-04-27T09:48:22;94214.03;;;16.22;37.41
9774;BME280;4926;42.670;23.316;2023-04-27T09:50:52;94217.22;;;15.25;38.96
9774;BME280;4926;42.670;23.316;2023-04-27T09:53:22;94233.78;;;14.89;40.14
9774;BME280;4926;42.670;23.316;2023-04-27T09:56:00;94222.25;;;14.97;39.68
9774;BME280;4926;42.670;23.316;2023-04-27T09:58:46;94220.88;;;15.79;38.81
9774;BME280;4926;42.670;23.316;2023-04-27T10:01:24;94203.84;;;15.75;37.94
9774;BME280;4926;42.670;23.316;2023-04-27T10:04:04;94213.72;;;15.33;38.99
9774;BME280;4926;42.670;23.316;2023-04-27T10:07:06;94228.09;;;14.91;39.72
9774;BME280;4926;42.670;23.316;2023-04-27T10:09:40;94230.59;;;14.96;39.81
9774;BME280;4926;42.670;23.316;2023-04-27T10:12:18;94226.25;;;14.83;39.87
9774;BME280;4926;42.670;23.316;2023-04-27T10:14:51;94230.03;;;14.82;39.81
9774;BME280;4926;42.670;23.316;2023-04-27T10:17:23;94226.16;;;15.00;39.61
9774;BME280;4926;42.670;23.316;2023-04-27T10:19:56;94207.72;;;15.36;38.60
9774;BME280;4926;42.670;23.316;2023-04-27T10:22:36;94222.31;;;15.18;39.13
9774;BME280;4926;42.670;23.316;2023-04-27T10:25:12;94217.72;;;14.81;39.23
9774;BME280;4926;42.670;23.316;2023-04-27T10:27:39;94223.94;;;14.55;39.80
9774;BME280;4926;42.670;23.316;2023-04-27T10:30:11;94235.94;;;14.49;39.71
9774;BME280;4926;42.670;23.316;2023-04-27T10:32:49;94211.94;;;14.70;39.10
9774;BME280;4926;42.670;23.316;2023-04-27T10:35:20;94200.31;;;15.04;38.81
9774;BME280;4926;42.670;23.316;2023-04-27T10:37:48;94210.16;;;14.83;38.62
9774;BME280;4926;42.670;23.316;2023-04-27T10:40:16;94212.72;;;14.71;39.30
9774;BME280;4926;42.670;23.316;2023-04-27T10:42:46;94213.81;;;14.70;39.37
9774;BME280;4926;42.670;23.316;2023-04-27T10:45:26;94215.09;;;14.72;39.40
9774;BME280;4926;42.670;23.316;2023-04-27T10:47:59;94203.53;;;14.89;39.28
9774;BME280;4926;42.670;23.316;2023-04-27T10:50:29;94204.22;;;14.69;38.86
9774;BME280;4926;42.670;23.316;2023-04-27T10:53:03;94213.13;;;14.35;39.29
9774;BME280;4926;42.670;23.316;2023-04-27T10:55:33;94208.63;;;15.11;39.33
9774;BME280;4926;42.670;23.316;2023-04-27T10:58:01;94203.56;;;15.68;38.20
9774;BME280;4926;42.670;23.316;2023-04-27T11:00:30;94186.03;;;15.91;37.34
9774;BME280;4926;42.670;23.316;2023-04-27T11:03:11;94176.56;;;15.93;36.17
9774;BME280;4926;42.670;23.316;2023-04-27T11:05:41;94185.38;;;15.73;36.66
9774;BME280;4926;42.670;23.316;2023-04-27T11:08:12;94179.97;;;15.32;36.79
9774;BME280;4926;42.670;23.316;2023-04-27T11:10:44;94176.94;;;15.33;37.22
9774;BME280;4926;42.670;23.316;2023-04-27T11:13:14;94177.00;;;15.54;37.29
9774;BME280;4926;42.670;23.316;2023-04-27T11:15:51;94187.47;;;15.47;37.75
9774;BME280;4926;42.670;23.316;2023-04-27T11:18:25;94180.81;;;15.74;37.60
9774;BME280;4926;42.670;23.316;2023-04-27T11:20:53;94189.50;;;16.44;37.46
9774;BME280;4926;42.670;23.316;2023-04-27T11:23:25;94191.03;;;16.66;36.87
9774;BME280;4926;42.670;23.316;2023-04-27T11:25:53;94181.50;;;16.56;36.44
9774;BME280;4926;42.670;23.316;2023-04-27T11:28:20;94189.09;;;16.54;36.88
9774;BME280;4926;42.670;23.316;2023-04-27T11:30:54;94197.31;;;15.84;37.64
9774;BME280;4926;42.670;23.316;2023-04-27T11:33:22;94197.63;;;15.62;37.95
9774;BME280;4926;42.670;23.316;2023-04-27T11:35:52;94203.03;;;15.53;37.54
9774;BME280;4926;42.670;23.316;2023-04-27T11:38:20;94208.03;;;15.43;38.10
9774;BME280;4926;42.670;23.316;2023-04-27T11:40:58;94212.25;;;15.44;38.18
9774;BME280;4926;42.670;23.316;2023-04-27T11:43:26;94200.38;;;15.74;37.85
9774;BME280;4926;42.670;23.316;2023-04-27T11:45:54;94205.81;;;15.66;37.79
9774;BME280;4926;42.670;23.316;2023-04-27T11:48:22;94196.44;;;15.22;37.95
9774;BME280;4926;42.670;23.316;2023-04-27T11:50:49;94198.00;;;15.23;38.09
9774;BME280;4926;42.670;23.316;2023-04-27T11:53:28;94210.09;;;15.00;37.83
9774;BME280;4926;42.670;23.316;2023-04-27T11:55:58;94219.72;;;14.92;38.52
9774;BME280;4926;42.670;23.316;2023-04-27T11:58:32;94221.59;;;15.00;38.55
9774;BME280;4926;42.670;23.316;2023-04-27T12:00:59;94211.63;;;15.09;38.32
9774;BME280;4926;42.670;23.316;2023-04-27T12:03:27;94213.53;;;15.09;38.26
9774;BME280;4926;42.670;23.316;2023-04-27T12:05:57;94216.63;;;15.19;38.45
9774;BME280;4926;42.670;23.316;2023-04-27T12:08:24;94226.09;;;15.17;38.53
9774;BME280;4926;42.670;23.316;2023-04-27T12:10:51;94228.09;;;14.91;38.76
9774;BME280;4926;42.670;23.316;2023-04-27T12:13:19;94214.88;;;14.86;39.06
9774;BME280;4926;42.670;23.316;2023-04-27T12:15:46;94228.44;;;14.81;38.99
9774;BME280;4926;42.670;23.316;2023-04-27T12:18:15;94228.34;;;14.60;38.85
9774;BME280;4926;42.670;23.316;2023-04-27T12:20:45;94227.88;;;14.67;39.10
9774;BME280;4926;42.670;23.316;2023-04-27T12:23:11;94231.50;;;14.62;39.31
9774;BME280;4926;42.670;23.316;2023-04-27T12:25:38;94231.16;;;14.72;39.13
9774;BME280;4926;42.670;23.316;2023-04-27T12:28:10;94231.06;;;14.51;39.08
9774;BME280;4926;42.670;23.316;2023-04-27T12:30:44;94233.78;;;14.34;39.55
9774;BME280;4926;42.670;23.316;2023-04-27T12:33:20;94245.56;;;14.33;39.70
9774;BME280;4926;42.670;23.316;2023-04-27T12:35:46;94232.50;;;13.98;39.93
9774;BME280;4926;42.670;23.316;2023-04-27T12:38:13;94252.00;;;14.15;39.96
9774;BME280;4926;42.670;23.316;2023-04-27T12:40:40;94234.25;;;14.28;39.86
9774;BME280;4926;42.670;23.316;2023-04-27T12:43:07;94241.50;;;14.36;39.95
9774;BME280;4926;42.670;23.316;2023-04-27T12:45:34;94241.78;;;14.17;40.03
9774;BME280;4926;42.670;23.316;2023-04-27T12:48:04;94245.88;;;14.23;40.06
9774;BME280;4926;42.670;23.316;2023-04-27T12:50:31;94252.03;;;14.24;40.12
9774;BME280;4926;42.670;23.316;2023-04-27T12:52:58;94242.75;;;14.13;40.01
9774;BME280;4926;42.670;23.316;2023-04-27T12:55:25;94249.50;;;14.10;39.83
9774;BME280;4926;42.670;23.316;2023-04-27T12:57:51;94243.84;;;14.20;39.81
9774;BME280;4926;42.670;23.316;2023-04-27T13:00:18;94241.47;;;14.10;40.16
9774;BME280;4926;42.670;23.316;2023-04-27T13:02:45;94247.13;;;14.17;39.71
9774;BME280;4926;42.670;23.316;2023-04-27T13:05:13;94252.19;;;13.93;40.11
9774;BME280;4926;42.670;23.316;2023-04-27T13:07:41;94244.63;;;13.95;40.18
9774;BME280;4926;42.670;23.316;2023-04-27T13:10:08;94251.41;;;14.10;39.70
9774;BME280;4926;42.670;23.316;2023-04-27T13:12:36;94247.63;;;14.28;39.44
9774;BME280;4926;42.670;23.316;2023-04-27T13:15:03;94246.53;;;14.37;39.39
9774;BME280;4926;42.670;23.316;2023-04-27T13:17:30;94240.16;;;14.59;39.06
9774;BME280;4926;42.670;23.316;2023-04-27T13:19:57;94230.81;;;14.82;39.03
9774;BME280;4926;42.670;23.316;2023-04-27T13:22:28;94227.84;;;14.75;38.69
9774;BME280;4926;42.670;23.316;2023-04-27T13:24:58;94226.59;;;14.73;38.97
9774;BME280;4926;42.670;23.316;2023-04-27T13:27:27;94231.97;;;14.73;38.95